Latest Weather Observations for Mount Ginini

IDN60901

Issued at 9:41 pm EDT Monday 20 February 2017 (issued every 10 minutes, with the page automatically refreshed every 10 minutes)

About weather observations | Map of Canberra area stations | Latest observations for Canberra area | Other Formats
Station Details ID: 070349 Name: MOUNT GININI AWS Lat: -35.53 Lon: 148.77 Height: 1760.0 m
Data from the previous 72 hours. | See also: Recent months at Mount Ginini
Date/Time
EDT
Temp
°C
App
Temp
°C
Dew
Point
°C
Rel
Hum
%
Delta-T
°C
Wind Press
QNH
hPa
Press
MSL
hPa
Rain since
9am
mm
Dir  Spd
km/h
Gust
km/h
Spd
kts
Gust
kts
20/09:30pm 2.8 -2.1 1.8 93 0.4 WSW 17 28 9 15 - - 0.2
20/09:00pm 3.1 -1.1 1.6 90 0.7 SW 13 22 7 12 - - 0.2
20/08:30pm 3.2 -0.9 0.1 80 1.3 WSW 11 19 6 10 - - 0.2
20/08:00pm 4.0 0.2 -0.4 73 1.8 SW 9 19 5 10 - - 0.2
20/07:30pm 5.5 1.1 0.1 68 2.3 SW 13 24 7 13 - - 0.2
20/07:00pm 6.8 1.5 -0.6 59 3.2 WSW 17 32 9 17 - - 0.2
20/06:30pm 8.2 3.4 0.0 56 3.6 WSW 15 28 8 15 - - 0.2
20/06:00pm 9.7 5.8 1.4 56 3.8 WSW 11 24 6 13 - - 0.2
20/05:30pm 9.0 4.2 0.2 54 3.9 W 15 28 8 15 - - 0.2
20/05:00pm 10.1 5.1 1.2 54 4.1 WSW 17 39 9 21 - - 0.2
20/04:30pm 7.9 2.7 0.2 58 3.4 WSW 17 33 9 18 - - 0.2
20/04:00pm 8.7 3.5 0.2 55 3.8 WSW 17 30 9 16 - - 0.2
20/03:30pm 9.7 4.5 0.3 52 4.2 W 17 35 9 19 - - 0.2
20/03:00pm 9.8 4.3 1.7 57 3.8 SW 20 39 11 21 - - 0.2
20/02:30pm 9.6 4.5 1.0 55 3.9 WSW 17 35 9 19 - - 0.2
20/02:00pm 8.6 3.1 0.3 56 3.7 WSW 19 37 10 20 - - 0.2
20/01:30pm 9.0 4.0 1.4 59 3.5 WSW 17 32 9 17 - - 0.2
20/01:00pm 7.5 1.9 -0.2 58 3.4 WSW 19 43 10 23 - - 0.2
20/12:30pm 8.2 3.2 1.4 62 3.1 WSW 17 39 9 21 - - 0.2
20/12:00pm 6.0 0.5 0.3 67 2.5 WSW 19 37 10 20 - - 0.2
20/11:30am 5.6 -0.1 0.8 71 2.1 WSW 20 39 11 21 - - 0.2
20/11:00am 5.1 -0.4 0.7 73 1.9 WSW 19 39 10 21 - - 0.0
20/10:30am 3.8 -1.9 0.8 81 1.3 WSW 20 39 11 21 - - 0.0
20/10:00am 2.7 -2.6 1.7 93 0.4 WSW 19 39 10 21 - - 0.0
20/09:30am 1.8 -3.7 0.9 94 0.4 WSW 19 37 10 20 - - 0.0
20/09:00am 0.7 -4.9 0.0 95 0.3 WSW 19 43 10 23 - - 0.0
20/08:30am -0.4 -5.8 -1.1 95 0.3 WSW 17 39 9 21 - - 0.0
20/08:00am -1.1 -6.9 -1.7 96 0.2 WSW 19 33 10 18 - - 0.0
20/07:30am -1.4 -6.9 -2.0 96 0.2 WSW 17 39 9 21 - - 0.0
20/07:00am -1.3 -6.4 -1.9 96 0.2 WSW 15 30 8 16 - - 0.0
20/06:30am -1.4 -6.5 -2.0 96 0.2 WSW 15 30 8 16 - - 0.0
20/06:00am -1.3 -6.8 -1.9 96 0.2 WSW 17 35 9 19 - - 0.0
20/05:30am -0.9 -6.3 -1.5 96 0.2 WSW 17 37 9 20 - - 0.0
20/05:00am -0.8 -6.6 -1.4 96 0.2 WSW 19 37 10 20 - - 0.0
20/04:30am -0.6 -6.4 -1.2 96 0.2 SW 19 37 10 20 - - 0.0
20/04:00am -0.3 -5.6 -0.9 96 0.2 WSW 17 37 9 20 - - 0.0
20/03:30am -0.1 -6.0 -0.7 96 0.2 WSW 20 43 11 23 - - 0.0
20/03:00am 0.1 -5.2 -0.6 95 0.3 WSW 17 35 9 19 - - 0.0
20/02:30am 0.5 -4.7 -0.2 95 0.3 WSW 17 35 9 19 - - 0.0
20/02:00am 1.0 -3.8 0.3 95 0.3 WSW 15 30 8 16 - - 0.0
20/01:30am 1.4 -4.7 0.5 94 0.4 W 22 46 12 25 - - 0.0
20/01:00am 2.1 -3.9 1.2 94 0.4 W 22 41 12 22 - - 0.0
20/12:30am 3.3 -2.5 0.2 80 1.3 W 20 46 11 25 - - 0.0
20/12:00am 3.3 -2.6 -0.9 74 1.7 W 20 41 11 22 - - 0.0
 
Date/Time
EDT
Temp
°C
App
Temp
°C
Dew
Point
°C
Rel
Hum
%
Delta-T
°C
Wind Press
QNH
hPa
Press
MSL
hPa
Rain since
9am
mm
Dir  Spd
km/h
Gust
km/h
Spd
kts
Gust
kts
19/11:30pm 3.3 -2.5 -1.3 72 1.9 W 19 35 10 19 - - 0.0
19/11:00pm 3.6 -2.7 -1.3 70 2.0 W 22 43 12 23 - - 0.0
19/10:30pm 3.7 -2.1 -1.8 67 2.2 W 19 37 10 20 - - 0.0
19/10:00pm 4.4 -1.4 -1.4 66 2.4 W 19 39 10 21 - - 0.0
19/09:30pm 4.6 -0.8 -1.6 64 2.5 W 17 37 9 20 - - 0.0
19/09:00pm 4.7 -1.3 -1.9 62 2.7 W 20 41 11 22 - - 0.0
19/08:30pm 5.3 -0.5 -1.6 61 2.9 W 19 39 10 21 - - 0.0
19/08:00pm 5.7 0.2 -1.9 58 3.1 W 17 33 9 18 - - 0.0
19/07:30pm 6.7 1.2 -1.9 54 3.6 W 17 33 9 18 - - 0.0
19/07:00pm 6.9 1.4 -2.0 53 3.7 W 17 33 9 18 - - 0.0
19/06:30pm 9.4 4.0 -1.3 47 4.6 W 17 32 9 17 - - 0.0
19/06:00pm 10.3 5.0 -0.8 46 4.9 WNW 17 33 9 18 - - 0.0
19/05:30pm 11.2 5.9 -0.6 44 5.3 WNW 17 33 9 18 - - 0.0
19/05:00pm 11.4 5.5 -1.0 42 5.5 WNW 20 41 11 22 - - 0.0
19/04:30pm 12.4 7.6 -0.1 42 5.7 W 15 35 8 19 - - 0.0
19/04:00pm 12.0 6.8 0.1 44 5.4 WNW 17 33 9 18 - - 0.0
19/03:30pm 12.3 7.2 1.0 46 5.3 WNW 17 32 9 17 - - 0.0
19/03:00pm 12.0 6.9 0.5 45 5.3 WNW 17 30 9 16 - - 0.0
19/02:30pm 11.2 5.5 0.6 48 4.9 WNW 20 33 11 18 - - 0.0
19/02:00pm 12.1 7.6 2.0 50 4.8 WNW 15 32 8 17 - - 0.0
19/01:30pm 11.8 7.3 2.0 51 4.7 WNW 15 28 8 15 - - 0.0
19/01:00pm 10.7 5.3 1.5 53 4.3 WNW 19 37 10 20 - - 0.0
19/12:30pm 10.8 5.8 1.4 52 4.4 W 17 30 9 16 - - 0.0
19/12:00pm 10.0 4.9 0.6 52 4.3 WNW 17 33 9 18 - - 0.0
19/11:30am 9.6 5.2 0.2 52 4.2 WNW 13 30 7 16 - - 0.0
19/11:00am 8.8 4.8 0.3 55 3.8 WNW 11 24 6 13 - - 0.0
19/10:30am 7.9 4.2 -0.3 56 3.6 W 9 20 5 11 - - 0.0
19/10:00am 7.1 3.9 -0.6 58 3.3 WSW 6 13 3 7 - - 0.0
19/09:30am 6.2 3.2 -1.9 56 3.4 WSW 4 11 2 6 - - 0.0
19/09:00am 5.6 2.6 -1.8 59 3.1 SW 4 7 2 4 - - 0.6
19/08:30am 4.4 1.3 -2.4 61 2.7 SSW 4 7 2 4 - - 0.6
19/08:00am 3.6 0.6 -1.7 68 2.1 S 4 6 2 3 - - 0.6
19/07:30am 2.6 -1.3 -1.6 74 1.7 SW 9 13 5 7 - - 0.6
19/07:00am 1.8 -2.5 -1.6 78 1.4 SW 11 15 6 8 - - 0.6
19/06:30am 2.0 -2.0 -2.1 74 1.6 WSW 9 13 5 7 - - 0.6
19/06:00am 2.5 -2.2 -1.7 74 1.7 WSW 13 19 7 10 - - 0.6
19/05:30am 2.4 -2.3 -1.7 74 1.6 WSW 13 20 7 11 - - 0.6
19/05:00am 2.6 -2.8 -1.4 75 1.6 WSW 17 24 9 13 - - 0.6
19/04:30am 2.8 -2.5 -0.8 77 1.5 WSW 17 22 9 12 - - 0.6
19/04:00am 2.1 -1.7 -0.8 81 1.2 SW 9 15 5 8 - - 0.6
19/03:30am 2.5 -1.2 -0.1 83 1.1 SW 9 19 5 10 - - 0.6
19/03:00am 3.2 -0.1 -0.1 79 1.4 WSW 7 11 4 6 - - 0.6
19/02:30am 3.3 -0.4 -0.3 77 1.5 WSW 9 13 5 7 - - 0.6
19/02:00am 4.2 1.1 0.2 75 1.7 SW 6 11 3 6 - - 0.6
19/01:30am 4.5 1.8 0.3 74 1.8 WSW 4 9 2 5 - - 0.6
19/01:00am 5.2 2.1 0.4 71 2.1 SSW 6 13 3 7 - - 0.6
19/12:30am 5.3 1.8 1.1 74 1.9 SW 9 19 5 10 - - 0.6
19/12:00am 5.2 1.2 0.8 73 1.9 SW 11 19 6 10 - - 0.6
 
Date/Time
EDT
Temp
°C
App
Temp
°C
Dew
Point
°C
Rel
Hum
%
Delta-T
°C
Wind Press
QNH
hPa
Press
MSL
hPa
Rain since
9am
mm
Dir  Spd
km/h
Gust
km/h
Spd
kts
Gust
kts
18/11:30pm 5.7 1.8 0.9 71 2.1 S 11 19 6 10 - - 0.6
18/11:00pm 5.8 1.6 1.7 75 1.8 S 13 22 7 12 - - 0.6
18/10:30pm 6.0 1.4 1.5 73 2.0 S 15 22 8 12 - - 0.6
18/10:00pm 6.1 1.4 1.2 71 2.2 SW 15 26 8 14 - - 0.6
18/09:30pm 6.8 2.1 0.9 66 2.6 SW 15 22 8 12 - - 0.6
18/09:00pm 7.2 3.3 0.9 64 2.8 WSW 11 22 6 12 - - 0.6
18/08:30pm 7.8 3.1 0.8 61 3.1 WSW 15 24 8 13 - - 0.6
18/08:00pm 8.7 3.6 0.7 57 3.6 W 17 30 9 16 - - 0.6
18/07:30pm 9.5 4.7 0.4 53 4.1 W 15 28 8 15 - - 0.6
18/07:00pm 10.5 5.2 -0.6 46 4.9 W 17 37 9 20 - - 0.6
18/06:30pm 12.2 8.1 2.1 50 4.8 W 13 30 7 16 - - 0.6
18/06:00pm 13.4 9.0 2.6 48 5.3 W 15 32 8 17 - - 0.6
18/05:30pm 13.9 8.7 3.4 49 5.2 W 20 39 11 21 - - 0.6
18/05:00pm 13.9 9.1 4.8 54 4.7 W 19 39 10 21 - - 0.6
18/04:30pm 14.5 11.6 8.2 66 3.5 WNW 13 33 7 18 - - 0.6
18/04:00pm 12.1 8.2 7.2 72 2.6 WNW 17 35 9 19 - - 0.6
18/03:30pm 12.4 8.3 7.7 73 2.5 WNW 19 33 10 18 - - 0.6
18/03:00pm 14.1 11.0 7.4 64 3.6 WNW 13 28 7 15 - - 0.6
18/02:30pm 14.6 11.0 8.3 66 3.5 WNW 17 30 9 16 - - 0.6
18/02:00pm 14.2 10.3 7.0 62 3.9 W 17 33 9 18 - - 0.6
18/01:30pm 12.9 9.4 7.1 68 3.1 WNW 15 32 8 17 - - 0.6
18/01:00pm 12.0 8.1 7.3 73 2.5 WNW 17 33 9 18 - - 0.6
18/12:30pm 10.4 6.6 5.8 73 2.4 WNW 15 32 8 17 - - 0.6
18/12:00pm 9.9 6.0 5.3 73 2.3 WNW 15 33 8 18 - - 0.6
18/11:30am 10.2 6.5 6.4 77 2.0 W 15 30 8 16 - - 0.6
18/11:00am 8.5 4.0 6.3 86 1.1 WNW 19 35 10 19 - - 0.6
18/10:30am 8.1 3.5 5.7 85 1.2 WNW 19 39 10 21 - - 0.4
18/10:00am 8.1 3.5 5.4 83 1.3 WNW 19 37 10 20 - - 0.2
18/09:30am 8.8 4.5 5.2 78 1.8 WNW 17 28 9 15 - - 0.0
18/09:00am 11.9 7.2 6.0 67 3.1 WNW 20 39 11 21 - - 0.0
18/08:30am 11.1 5.4 5.0 66 3.1 NW 24 43 13 23 - - 0.0
18/08:00am 9.5 4.4 3.9 68 2.7 NW 20 32 11 17 - - 0.0
18/07:30am 9.3 4.2 4.3 71 2.5 NNW 20 33 11 18 - - 0.0
18/07:00am 10.5 5.1 2.6 58 3.8 NW 20 35 11 19 - - 0.0
18/06:30am 10.3 5.5 2.7 59 3.6 WNW 17 28 9 15 - - 0.0
18/06:00am 11.1 5.7 2.4 55 4.2 WNW 20 35 11 19 - - 0.0
18/05:30am 11.2 6.1 3.0 57 4.0 WNW 19 32 10 17 - - 0.0
18/05:00am 11.3 6.6 3.1 57 4.0 WNW 17 24 9 13 - - 0.0
18/04:30am 12.5 7.4 3.2 53 4.6 WNW 19 33 10 18 - - 0.0
18/04:00am 12.4 7.5 4.1 57 4.1 NW 19 30 10 16 - - 0.0
18/03:30am 12.8 8.1 5.0 59 4.0 NW 19 35 10 19 - - 0.0
18/03:00am 13.1 8.3 5.8 61 3.8 WNW 20 35 11 19 - - 0.0
18/02:30am 13.2 8.7 5.9 61 3.8 WNW 19 32 10 17 - - 0.0
18/02:00am 13.2 9.2 6.5 64 3.5 WNW 17 30 9 16 - - 0.0
18/01:30am 13.3 9.4 6.9 65 3.4 WNW 17 30 9 16 - - 0.0
18/01:00am 13.5 9.8 7.9 69 3.0 WNW 17 28 9 15 - - 0.0
18/12:30am 13.8 10.2 8.2 69 3.1 WNW 17 32 9 17 - - 0.0
18/12:00am 13.9 10.7 8.3 69 3.1 W 15 26 8 14 - - 0.0
 
Date/Time
EDT
Temp
°C
App
Temp
°C
Dew
Point
°C
Rel
Hum
%
Delta-T
°C
Wind Press
QNH
hPa
Press
MSL
hPa
Rain since
9am
mm
Dir  Spd
km/h
Gust
km/h
Spd
kts
Gust
kts
17/11:30pm 14.2 10.6 8.2 67 3.3 W 17 33 9 18 - - 0.0
17/11:00pm 14.2 11.4 8.4 68 3.2 W 13 22 7 12 - - 0.0
17/10:30pm 14.5 12.1 8.5 67 3.3 W 11 20 6 11 - - 0.0
17/10:00pm 15.2 12.3 8.2 63 3.9 W 13 24 7 13 - - 0.0

Latest Capital City Observations: Canberra | Sydney | Melbourne | Brisbane | Adelaide | Perth | Hobart | Darwin

Other Formats:

Comma delimited format used in spreadsheet applications
http://www.bom.gov.au/fwo/IDN60903/IDN60903.95925.axf

JavaScript Object Notation format (JSON) in row-major order
http://www.bom.gov.au/fwo/IDN60903/IDN60903.95925.json